Time;durP1;ratioP1;P1;durP2;ratioP2;P2;SDS_P1;SDS_P2;PMS_P1;PMS_P2;Temp;Humidity;BMP_temperature;BMP_pressure;BME280_temperature;BME280_humidity;BME280_pressure;Samples;Min_cycle;Max_cycle;Signal;HPM_P1;HPM_P2
2021/12/28 05:01:28;;;;;;;3.80;1.90;;;8.10;99.90;;;;;;5473724;23;20509;-69
2021/12/28 05:03:55;;;;;;;6.77;2.53;;;8.00;99.90;;;;;;4975935;28;20451;-69
2021/12/28 05:06:22;;;;;;;11.97;2.67;;;8.00;99.90;;;;;;4981269;28;20464;-69
2021/12/28 05:08:49;;;;;;;8.70;2.50;;;8.00;99.90;;;;;;4980035;28;20583;-68
2021/12/28 05:11:16;;;;;;;8.50;2.20;;;8.00;99.90;;;;;;4981275;28;21000;-69
2021/12/28 05:13:44;;;;;;;7.50;2.17;;;7.90;99.90;;;;;;4979091;28;20451;-69
2021/12/28 05:16:14;;;;;;;8.67;2.80;;;7.90;99.90;;;;;;4978706;28;20479;-69
2021/12/28 05:18:43;;;;;;;8.87;2.70;;;7.90;99.90;;;;;;4977065;28;20798;-69
2021/12/28 05:21:10;;;;;;;7.57;3.03;;;7.90;99.90;;;;;;4979062;28;20487;-69
2021/12/28 05:23:36;;;;;;;9.23;3.30;;;7.80;99.90;;;;;;4977513;28;20448;-69
2021/12/28 05:26:03;;;;;;;6.77;3.00;;;7.80;99.90;;;;;;4977580;28;20447;-68
2021/12/28 05:28:33;;;;;;;5.40;2.10;;;7.80;99.90;;;;;;4976956;28;20451;-70
2021/12/28 05:31:00;;;;;;;6.40;2.57;;;7.80;99.90;;;;;;4978897;28;20473;-68
2021/12/28 05:33:27;;;;;;;5.00;2.10;;;7.70;99.90;;;;;;4981813;28;20451;-69
2021/12/28 05:35:55;;;;;;;13.20;2.40;;;7.70;99.90;;;;;;4982417;28;20483;-69
2021/12/28 05:38:23;;;;;;;6.77;2.53;;;7.70;99.90;;;;;;4981490;28;20459;-68
2021/12/28 05:40:50;;;;;;;6.50;2.30;;;7.70;99.90;;;;;;4983928;28;20470;-68
2021/12/28 05:43:17;;;;;;;8.83;2.43;;;7.70;99.90;;;;;;4981027;28;20459;-68
2021/12/28 05:45:45;;;;;;;6.97;2.80;;;7.70;99.90;;;;;;4980362;28;20451;-69
2021/12/28 05:48:12;;;;;;;6.60;2.23;;;7.70;99.90;;;;;;4977161;28;20463;-69
2021/12/28 05:50:39;;;;;;;4.03;2.43;;;7.70;99.90;;;;;;4976002;28;20479;-69
2021/12/28 05:53:08;;;;;;;5.77;2.40;;;7.70;99.90;;;;;;4977203;28;20938;-69
2021/12/28 05:55:35;;;;;;;5.30;2.60;;;7.80;99.90;;;;;;4977866;28;20484;-70
2021/12/28 05:58:02;;;;;;;9.10;2.27;;;7.80;99.90;;;;;;4975785;28;20942;-69
2021/12/28 06:00:29;;;;;;;5.63;2.10;;;7.80;99.90;;;;;;4976520;28;20856;-69
2021/12/28 06:02:56;;;;;;;7.53;2.50;;;7.80;99.90;;;;;;4978467;28;20502;-69
2021/12/28 06:05:23;;;;;;;7.20;2.87;;;7.90;99.90;;;;;;4979786;28;20989;-70
2021/12/28 06:07:50;;;;;;;7.30;2.57;;;7.90;99.90;;;;;;4979816;28;20461;-69
2021/12/28 06:10:18;;;;;;;10.23;3.13;;;8.00;99.90;;;;;;4979096;28;20954;-68
2021/12/28 06:12:46;;;;;;;5.23;2.60;;;8.00;99.90;;;;;;4981244;28;20451;-68
2021/12/28 06:15:14;;;;;;;6.97;2.43;;;8.10;99.90;;;;;;4988534;28;20604;-68
2021/12/28 06:17:41;;;;;;;14.17;2.80;;;8.10;99.90;;;;;;4985899;28;20538;-68
2021/12/28 06:20:10;;;;;;;7.17;2.60;;;8.10;99.90;;;;;;4983802;28;20458;-68
2021/12/28 06:22:37;;;;;;;7.97;2.37;;;8.10;99.90;;;;;;4981837;28;20805;-68
2021/12/28 06:25:07;;;;;;;6.50;2.90;;;8.10;99.90;;;;;;4980513;28;20443;-68
2021/12/28 06:27:35;;;;;;;8.90;2.50;;;8.20;99.90;;;;;;4984060;28;20460;-69
2021/12/28 06:30:03;;;;;;;7.90;2.60;;;8.20;99.90;;;;;;4984563;28;21025;-68
2021/12/28 06:32:30;;;;;;;4.93;2.60;;;8.20;99.90;;;;;;4984865;28;20570;-68
2021/12/28 06:34:58;;;;;;;10.93;2.73;;;8.10;99.90;;;;;;4982746;28;20484;-68
2021/12/28 06:37:25;;;;;;;5.73;2.73;;;8.10;99.90;;;;;;4987361;28;20458;-68
2021/12/28 06:39:53;;;;;;;4.93;2.33;;;8.10;99.90;;;;;;4987156;28;20459;-68
2021/12/28 06:42:21;;;;;;;2.47;2.27;;;8.00;99.90;;;;;;4986611;28;20478;-68
2021/12/28 06:44:53;;;;;;;4.60;2.40;;;8.00;99.90;;;;;;4985160;28;20482;-68
2021/12/28 06:47:21;;;;;;;6.53;2.13;;;8.00;99.90;;;;;;4984560;28;20450;-68
2021/12/28 06:49:47;;;;;;;3.30;2.10;;;7.90;99.90;;;;;;4985544;28;20455;-68
2021/12/28 06:52:15;;;;;;;3.50;2.17;;;7.90;99.90;;;;;;4979569;28;20475;-69
2021/12/28 06:54:42;;;;;;;5.73;2.63;;;7.90;99.90;;;;;;4979653;28;20455;-68
2021/12/28 06:57:10;;;;;;;3.20;2.43;;;7.90;99.90;;;;;;4979617;28;20513;-68
2021/12/28 06:59:43;;;;;;;2.37;2.17;;;7.90;99.90;;;;;;4978433;28;20908;-68
2021/12/28 07:02:12;;;;;;;2.93;2.50;;;7.90;99.90;;;;;;4978940;28;20509;-68
2021/12/28 07:04:39;;;;;;;3.90;2.23;;;8.00;99.90;;;;;;4978966;28;20789;-68
2021/12/28 07:07:06;;;;;;;2.93;2.30;;;8.00;99.90;;;;;;4979039;28;20459;-69
2021/12/28 07:09:33;;;;;;;3.43;2.10;;;8.00;99.90;;;;;;4979027;28;20462;-72
2021/12/28 07:12:00;;;;;;;5.23;1.90;;;8.00;99.90;;;;;;4979650;28;20483;-70
2021/12/28 07:14:28;;;;;;;1.90;1.30;;;8.00;99.90;;;;;;4982927;28;20455;-69
2021/12/28 07:16:55;;;;;;;1.53;1.40;;;8.10;99.90;;;;;;4983144;28;20877;-68
2021/12/28 07:19:23;;;;;;;3.27;1.27;;;8.10;99.90;;;;;;4980337;28;20799;-70
2021/12/28 07:21:50;;;;;;;1.53;1.33;;;8.20;99.90;;;;;;4980633;28;20479;-69
2021/12/28 07:24:18;;;;;;;2.60;1.37;;;8.20;99.90;;;;;;4981998;28;20477;-69
2021/12/28 07:26:45;;;;;;;1.27;0.90;;;8.30;99.90;;;;;;4980675;28;20455;-70
2021/12/28 07:29:13;;;;;;;1.03;1.03;;;8.30;99.90;;;;;;4979433;28;20439;-69
2021/12/28 07:31:40;;;;;;;1.70;0.53;;;8.40;99.90;;;;;;4979479;28;20476;-68
2021/12/28 07:34:07;;;;;;;0.80;0.80;;;8.40;99.90;;;;;;4981630;28;20486;-68
2021/12/28 07:36:35;;;;;;;0.83;0.83;;;8.50;99.90;;;;;;4991559;28;20487;-69
2021/12/28 07:39:02;;;;;;;0.80;0.80;;;8.60;99.90;;;;;;4991240;28;20854;-69
2021/12/28 07:41:29;;;;;;;1.47;1.10;;;8.60;99.90;;;;;;4978990;28;20843;-68
2021/12/28 07:43:55;;;;;;;3.90;1.10;;;8.70;99.90;;;;;;4978518;28;20482;-68
2021/12/28 07:46:22;;;;;;;1.80;1.10;;;8.80;99.90;;;;;;4977767;28;20965;-68
2021/12/28 07:48:49;;;;;;;0.80;0.80;;;8.90;99.90;;;;;;4977731;28;20661;-69
2021/12/28 07:51:16;;;;;;;1.43;0.90;;;9.00;99.90;;;;;;4977575;28;20475;-68
2021/12/28 07:53:44;;;;;;;0.60;0.60;;;9.00;99.90;;;;;;4977079;28;20462;-69
2021/12/28 07:56:11;;;;;;;0.93;0.90;;;9.10;99.90;;;;;;4977562;28;20464;-69
2021/12/28 07:58:38;;;;;;;0.83;0.73;;;9.10;99.90;;;;;;4977411;28;20466;-69
2021/12/28 08:01:05;;;;;;;0.80;0.80;;;9.10;99.90;;;;;;4977145;28;20487;-69
2021/12/28 08:03:31;;;;;;;0.57;0.57;;;9.20;99.90;;;;;;4977402;28;20463;-68
2021/12/28 08:05:58;;;;;;;0.67;0.67;;;9.20;99.90;;;;;;4977121;28;20986;-69
2021/12/28 08:08:25;;;;;;;0.70;0.70;;;9.10;99.90;;;;;;4977210;28;20835;-69
2021/12/28 08:10:53;;;;;;;1.40;0.70;;;9.10;99.90;;;;;;4977615;28;20479;-70
2021/12/28 08:13:21;;;;;;;1.43;0.80;;;9.20;99.90;;;;;;4981278;28;20558;-68
2021/12/28 08:15:48;;;;;;;1.70;0.60;;;9.20;99.90;;;;;;4977453;28;20482;-68
2021/12/28 08:18:15;;;;;;;0.83;0.83;;;9.30;99.90;;;;;;4977279;28;20463;-68
2021/12/28 08:20:42;;;;;;;0.63;0.63;;;9.40;99.90;;;;;;4977061;28;20475;-68
2021/12/28 08:23:09;;;;;;;0.70;0.70;;;9.40;99.90;;;;;;4977097;28;20530;-68
2021/12/28 08:25:36;;;;;;;0.60;0.60;;;9.40;99.90;;;;;;4976177;28;20455;-68
2021/12/28 08:28:06;;;;;;;0.70;0.70;;;9.50;99.90;;;;;;4976867;28;20812;-68
2021/12/28 08:30:34;;;;;;;0.50;0.50;;;9.50;99.90;;;;;;4976850;28;20484;-68
2021/12/28 08:33:02;;;;;;;0.63;0.60;;;9.50;99.90;;;;;;4976591;28;20454;-69
2021/12/28 08:35:29;;;;;;;1.00;0.70;;;9.40;99.90;;;;;;4976999;28;20490;-69
2021/12/28 08:37:56;;;;;;;0.70;0.50;;;9.40;99.90;;;;;;4976112;28;20985;-68
2021/12/28 08:40:24;;;;;;;0.60;0.60;;;9.40;99.90;;;;;;4976596;28;20459;-68
2021/12/28 08:42:50;;;;;;;0.50;0.50;;;9.50;99.90;;;;;;4976668;28;20468;-69
2021/12/28 08:45:19;;;;;;;0.50;0.50;;;9.50;99.90;;;;;;4976584;28;20462;-70
2021/12/28 08:47:46;;;;;;;0.50;0.50;;;9.40;99.90;;;;;;4976268;28;20456;-70
2021/12/28 08:50:14;;;;;;;0.70;0.70;;;9.50;99.90;;;;;;4976353;28;20455;-70
2021/12/28 08:52:42;;;;;;;1.13;0.40;;;9.60;99.90;;;;;;4976512;28;20443;-69
2021/12/28 08:55:09;;;;;;;0.50;0.50;;;9.60;99.90;;;;;;4976307;28;20460;-69
2021/12/28 08:57:36;;;;;;;0.60;0.50;;;9.70;99.90;;;;;;4976389;28;20480;-69
2021/12/28 09:00:06;;;;;;;0.57;0.57;;;9.70;99.90;;;;;;4976079;28;20459;-68
2021/12/28 09:02:34;;;;;;;0.63;0.63;;;9.70;99.90;;;;;;4976512;28;20484;-68
2021/12/28 09:05:01;;;;;;;1.80;0.53;;;9.80;99.90;;;;;;4976318;28;20459;-69
2021/12/28 09:07:27;;;;;;;0.50;0.50;;;9.90;99.90;;;;;;4976447;28;20459;-68
2021/12/28 09:09:55;;;;;;;0.43;0.40;;;9.80;99.90;;;;;;4976010;28;20957;-68
2021/12/28 09:12:22;;;;;;;0.50;0.50;;;9.80;99.90;;;;;;4975769;28;20480;-69
2021/12/28 09:14:49;;;;;;;0.50;0.50;;;9.90;99.90;;;;;;4975553;28;20458;-71
2021/12/28 09:17:16;;;;;;;0.40;0.40;;;9.90;99.90;;;;;;4975490;28;20481;-70
2021/12/28 09:19:44;;;;;;;0.40;0.40;;;9.90;99.90;;;;;;4975409;28;20462;-69
2021/12/28 09:22:11;;;;;;;1.33;0.50;;;10.00;99.90;;;;;;4975670;28;20482;-70
2021/12/28 09:24:38;;;;;;;0.53;0.53;;;10.00;99.90;;;;;;4976095;28;20461;-69
2021/12/28 09:27:05;;;;;;;0.70;0.50;;;10.10;99.90;;;;;;4976092;28;20484;-68
2021/12/28 09:29:32;;;;;;;0.70;0.70;;;10.10;99.90;;;;;;4976056;28;20464;-69
2021/12/28 09:32:00;;;;;;;0.67;0.60;;;10.20;99.90;;;;;;4975777;28;20489;-69
2021/12/28 09:34:28;;;;;;;0.40;0.40;;;10.30;99.90;;;;;;4976172;28;20833;-69
2021/12/28 09:36:57;;;;;;;0.43;0.43;;;10.30;99.90;;;;;;4975263;28;20485;-68
2021/12/28 09:39:26;;;;;;;1.43;0.60;;;10.40;99.90;;;;;;4976176;28;20446;-69
2021/12/28 09:41:54;;;;;;;0.40;0.40;;;10.30;99.90;;;;;;4976225;28;20477;-68
2021/12/28 09:44:21;;;;;;;1.07;0.50;;;10.40;99.90;;;;;;4984558;28;20464;-71
2021/12/28 09:46:48;;;;;;;2.90;0.57;;;10.40;99.90;;;;;;4978171;28;20833;-71
2021/12/28 09:49:15;;;;;;;1.17;0.40;;;10.50;99.90;;;;;;4976349;28;20465;-70
2021/12/28 09:51:42;;;;;;;0.50;0.50;;;10.60;99.90;;;;;;4976357;28;20482;-71
2021/12/28 09:54:10;;;;;;;0.50;0.50;;;10.60;99.90;;;;;;4975917;28;20458;-71
2021/12/28 09:56:37;;;;;;;1.07;1.07;;;10.70;99.90;;;;;;4975576;28;20489;-70
2021/12/28 09:59:04;;;;;;;0.60;0.60;;;10.70;99.90;;;;;;4975848;28;20448;-70
2021/12/28 10:01:31;;;;;;;0.93;0.47;;;10.70;99.90;;;;;;4975615;28;20489;-70
2021/12/28 10:03:59;;;;;;;1.13;0.60;;;10.70;99.90;;;;;;4975569;28;20468;-70
2021/12/28 10:06:28;;;;;;;0.70;0.70;;;10.60;99.90;;;;;;4976711;28;20485;-71
2021/12/28 10:09:06;;;;;;;0.60;0.60;;;10.60;99.90;;;;;;4975666;28;20459;-71
2021/12/28 10:11:36;;;;;;;0.60;0.60;;;10.70;99.90;;;;;;4975310;28;20491;-70
2021/12/28 10:14:14;;;;;;;0.40;0.40;;;10.70;99.90;;;;;;4975013;28;20466;-71
2021/12/28 10:16:47;;;;;;;0.70;0.70;;;10.60;99.90;;;;;;4975408;28;20483;-71
2021/12/28 10:19:29;;;;;;;0.70;0.70;;;10.80;99.90;;;;;;4974898;28;20980;-71
2021/12/28 10:21:56;;;;;;;3.47;0.60;;;10.80;99.90;;;;;;4975093;28;20481;-72
2021/12/28 10:24:31;;;;;;;0.60;0.60;;;11.10;99.90;;;;;;4975780;28;20454;-72
2021/12/28 10:27:13;;;;;;;1.90;0.50;;;11.30;99.90;;;;;;4975361;28;20943;-73
2021/12/28 10:29:40;;;;;;;0.57;0.57;;;11.60;99.90;;;;;;4975369;28;20460;-73
2021/12/28 10:32:22;;;;;;;0.67;0.50;;;11.80;99.90;;;;;;4975110;28;20506;-71
2021/12/28 10:34:50;;;;;;;1.00;0.50;;;12.10;99.90;;;;;;4975489;28;20454;-78
2021/12/28 10:37:18;;;;;;;0.70;0.70;;;12.40;99.90;;;;;;4975178;28;20489;-72
2021/12/28 10:39:47;;;;;;;1.67;0.57;;;12.40;99.90;;;;;;4975079;28;20458;-71
2021/12/28 10:42:50;;;;;;;0.53;0.53;;;12.40;99.90;;;;;;4975138;28;20470;-72
2021/12/28 10:45:20;;;;;;;0.83;0.80;;;12.20;99.90;;;;;;4975629;28;20813;-73
2021/12/28 10:47:48;;;;;;;0.77;0.50;;;12.20;99.90;;;;;;4975396;28;20450;-71
2021/12/28 10:50:40;;;;;;;0.43;0.43;;;12.20;99.90;;;;;;4978445;28;20941;-72
2021/12/28 10:53:17;;;;;;;0.53;0.53;;;12.20;99.90;;;;;;4964260;28;20476;-70
2021/12/28 10:55:45;;;;;;;0.50;0.50;;;12.30;99.90;;;;;;4978213;28;20462;-70
2021/12/28 10:58:22;;;;;;;0.30;0.30;;;12.40;99.90;;;;;;4978513;28;20491;-70
2021/12/28 11:00:49;;;;;;;0.50;0.50;;;12.50;99.90;;;;;;4978282;28;20494;-70
2021/12/28 11:03:33;;;;;;;1.57;0.60;;;12.60;99.90;;;;;;4979474;28;20462;-70
2021/12/28 11:06:12;;;;;;;1.03;0.93;;;12.60;99.90;;;;;;4978806;28;20441;-67
2021/12/28 11:08:39;;;;;;;0.53;0.53;;;12.60;99.90;;;;;;4978398;28;20464;-66
2021/12/28 11:11:09;;;;;;;0.70;0.60;;;12.60;99.90;;;;;;4978578;28;20485;-70
2021/12/28 11:13:38;;;;;;;0.70;0.70;;;12.60;99.90;;;;;;4978475;28;20444;-70
2021/12/28 11:16:08;;;;;;;0.57;0.57;;;12.60;99.90;;;;;;4979537;28;20549;-69
2021/12/28 11:18:36;;;;;;;1.13;0.50;;;12.60;99.90;;;;;;4979576;28;20462;-69
2021/12/28 11:21:11;;;;;;;0.50;0.50;;;12.60;99.90;;;;;;4978620;28;20484;-70
2021/12/28 11:23:38;;;;;;;0.67;0.67;;;12.60;99.90;;;;;;4978740;28;20443;-70
2021/12/28 11:26:15;;;;;;;1.03;0.50;;;12.80;99.90;;;;;;4978610;28;20452;-71
2021/12/28 11:28:56;;;;;;;0.40;0.40;;;12.90;99.90;;;;;;4978205;28;20450;-70
2021/12/28 11:31:25;;;;;;;0.63;0.63;;;12.90;99.90;;;;;;4977838;28;20982;-70
2021/12/28 11:33:57;;;;;;;3.87;0.47;;;12.80;99.90;;;;;;4978092;28;20455;-70
2021/12/28 11:36:26;;;;;;;0.60;0.60;;;12.80;99.90;;;;;;4977856;28;20813;-70
2021/12/28 11:38:54;;;;;;;0.60;0.60;;;12.70;99.90;;;;;;4978375;28;20446;-70
2021/12/28 11:41:21;;;;;;;0.60;0.60;;;12.80;99.90;;;;;;4977993;28;20480;-70
2021/12/28 11:43:49;;;;;;;0.60;0.60;;;12.80;99.90;;;;;;4977865;28;20464;-70
2021/12/28 11:46:17;;;;;;;0.40;0.40;;;12.70;99.90;;;;;;4978024;28;20462;-69
2021/12/28 11:48:45;;;;;;;0.40;0.40;;;12.80;99.90;;;;;;4977860;28;20465;-70
2021/12/28 11:51:13;;;;;;;0.50;0.50;;;12.90;99.90;;;;;;4977734;28;20919;-70
2021/12/28 11:53:46;;;;;;;0.60;0.60;;;12.90;99.90;;;;;;4977701;28;20465;-70
2021/12/28 11:56:15;;;;;;;0.50;0.50;;;12.90;99.90;;;;;;4978059;28;20563;-70
2021/12/28 11:58:58;;;;;;;0.43;0.43;;;12.80;99.90;;;;;;4978036;28;20846;-70
2021/12/28 12:01:39;;;;;;;0.60;0.60;;;12.80;99.90;;;;;;4977038;28;20483;-70
2021/12/28 12:04:45;;;;;;;0.60;0.60;;;12.80;99.90;;;;;;4978288;28;20455;-69
2021/12/28 12:07:20;;;;;;;1.17;0.40;;;12.80;99.90;;;;;;4977940;28;20456;-66
2021/12/28 12:10:27;;;;;;;2.50;0.70;;;12.90;99.90;;;;;;4977446;28;20431;-65
2021/12/28 12:13:18;;;;;;;0.70;0.70;;;12.90;99.90;;;;;;4917844;29;20916;-68
2021/12/28 12:15:50;;;;;;;0.60;0.60;;;12.80;99.90;;;;;;4966635;28;20801;-69
2021/12/28 12:18:20;;;;;;;1.17;0.80;;;12.80;99.90;;;;;;4977363;28;20474;-69
2021/12/28 12:20:52;;;;;;;0.97;0.90;;;12.90;99.90;;;;;;4984122;28;20484;-69
2021/12/28 12:23:22;;;;;;;0.80;0.80;;;12.90;99.90;;;;;;4984974;28;20460;-69
2021/12/28 12:26:07;;;;;;;1.70;0.83;;;12.90;99.90;;;;;;4986099;28;20454;-69
2021/12/28 12:28:40;;;;;;;0.70;0.70;;;12.90;99.90;;;;;;4979820;28;20458;-70
2021/12/28 12:31:11;;;;;;;0.70;0.70;;;12.90;99.90;;;;;;4977653;28;20839;-70
2021/12/28 12:33:41;;;;;;;0.60;0.60;;;12.90;99.90;;;;;;4977438;28;20451;-70
2021/12/28 12:36:16;;;;;;;1.03;0.80;;;12.90;99.90;;;;;;4977288;28;20938;-70
2021/12/28 12:38:43;;;;;;;0.47;0.47;;;12.80;99.90;;;;;;4977000;28;20535;-70
2021/12/28 12:41:14;;;;;;;0.70;0.70;;;12.70;99.90;;;;;;4976739;28;20485;-67
2021/12/28 12:43:44;;;;;;;0.70;0.70;;;12.60;99.90;;;;;;4977051;28;20442;-69
2021/12/28 12:46:20;;;;;;;0.60;0.60;;;12.60;99.90;;;;;;4977768;28;20443;-70
2021/12/28 12:48:59;;;;;;;0.77;0.73;;;12.70;99.90;;;;;;4982514;28;20438;-69
2021/12/28 12:51:30;;;;;;;0.70;0.70;;;12.70;99.90;;;;;;4976647;28;20486;-69
2021/12/28 12:54:12;;;;;;;0.83;0.83;;;12.60;99.90;;;;;;4976934;28;20467;-70
2021/12/28 12:56:41;;;;;;;0.70;0.70;;;12.60;99.90;;;;;;4976634;28;20929;-69
2021/12/28 12:59:23;;;;;;;0.60;0.60;;;12.50;99.90;;;;;;4976550;28;20440;-68
2021/12/28 13:02:03;;;;;;;0.60;0.60;;;12.50;99.90;;;;;;4976756;28;20553;-69
2021/12/28 13:04:51;;;;;;;0.80;0.80;;;12.50;99.90;;;;;;4976565;28;20478;-72
2021/12/28 13:07:21;;;;;;;0.53;0.53;;;12.50;99.90;;;;;;4976838;28;20964;-72
2021/12/28 13:09:55;;;;;;;2.63;0.90;;;12.50;99.90;;;;;;4977191;28;20457;-70
2021/12/28 13:12:21;;;;;;;0.87;0.60;;;12.50;99.90;;;;;;4976798;28;20492;-71
2021/12/28 13:14:50;;;;;;;0.77;0.77;;;12.40;99.90;;;;;;4976670;28;20447;-72
2021/12/28 13:17:21;;;;;;;0.60;0.60;;;12.40;99.90;;;;;;4976866;28;20470;-72
2021/12/28 13:20:06;;;;;;;0.87;0.87;;;12.50;99.90;;;;;;4976962;28;20467;-71
2021/12/28 13:22:35;;;;;;;1.60;1.10;;;12.50;99.90;;;;;;4977173;28;20488;-71
2021/12/28 13:25:05;;;;;;;2.30;0.70;;;12.40;99.90;;;;;;4977405;28;20446;-72
2021/12/28 13:27:32;;;;;;;1.70;1.00;;;12.50;99.90;;;;;;4976664;28;20447;-69
2021/12/28 13:29:59;;;;;;;1.50;1.00;;;12.40;99.90;;;;;;4976055;28;20926;-70
2021/12/28 13:32:31;;;;;;;2.73;1.00;;;12.50;99.90;;;;;;4976273;28;20490;-71
2021/12/28 13:35:07;;;;;;;0.90;0.90;;;12.60;99.90;;;;;;4976540;28;20434;-71
2021/12/28 13:37:36;;;;;;;3.60;1.17;;;12.60;99.90;;;;;;4976562;28;20463;-70
2021/12/28 13:40:07;;;;;;;1.10;1.00;;;12.60;99.90;;;;;;4976207;28;20442;-71
2021/12/28 13:42:34;;;;;;;0.90;0.87;;;12.70;99.90;;;;;;4976455;28;20489;-70
2021/12/28 13:45:01;;;;;;;1.17;0.70;;;12.60;99.90;;;;;;4976444;28;20469;-70
2021/12/28 13:47:29;;;;;;;0.90;0.90;;;12.70;99.90;;;;;;4975770;28;20458;-69
2021/12/28 13:50:05;;;;;;;0.80;0.80;;;12.60;99.90;;;;;;4975696;28;20462;-70
2021/12/28 13:52:47;;;;;;;0.70;0.70;;;12.60;99.90;;;;;;4975628;28;20986;-70
2021/12/28 13:55:17;;;;;;;0.70;0.70;;;12.50;99.90;;;;;;4976668;28;20446;-69
2021/12/28 13:57:44;;;;;;;1.17;0.67;;;12.50;99.90;;;;;;4977339;28;20489;-69
2021/12/28 14:00:14;;;;;;;0.97;0.97;;;12.40;99.90;;;;;;4976834;28;20460;-69
2021/12/28 14:02:53;;;;;;;1.27;1.10;;;12.50;99.90;;;;;;4976288;28;20485;-70
2021/12/28 14:05:21;;;;;;;0.70;0.70;;;12.50;99.90;;;;;;4976233;28;20442;-70
2021/12/28 14:07:48;;;;;;;1.17;0.80;;;12.50;99.90;;;;;;4975424;28;20922;-70
2021/12/28 14:10:19;;;;;;;1.10;1.10;;;12.50;99.90;;;;;;4975856;28;20913;-70
2021/12/28 14:13:05;;;;;;;0.73;0.73;;;12.50;99.90;;;;;;4975611;28;20470;-70
2021/12/28 14:15:32;;;;;;;1.87;0.90;;;12.50;99.90;;;;;;4975951;28;20474;-70
2021/12/28 14:18:00;;;;;;;1.20;0.83;;;12.50;99.90;;;;;;4976964;28;20486;-69
2021/12/28 14:20:28;;;;;;;1.37;0.80;;;12.60;99.90;;;;;;4982915;28;20447;-70
2021/12/28 14:22:56;;;;;;;3.47;1.07;;;12.50;99.90;;;;;;4976213;28;20815;-69
2021/12/28 14:25:23;;;;;;;2.03;0.80;;;12.50;99.90;;;;;;4979677;28;20867;-70
2021/12/28 14:27:56;;;;;;;2.33;0.90;;;12.50;99.90;;;;;;4979505;28;20454;-71
2021/12/28 14:30:26;;;;;;;0.93;0.60;;;12.50;99.90;;;;;;4979602;28;20536;-69
2021/12/28 14:32:54;;;;;;;2.63;1.30;;;12.50;99.90;;;;;;4979370;28;20439;-70
2021/12/28 14:35:29;;;;;;;1.27;1.17;;;12.50;99.90;;;;;;4979097;28;20814;-70
2021/12/28 14:37:56;;;;;;;1.23;0.77;;;12.50;99.90;;;;;;4978676;28;20989;-70
2021/12/28 14:40:27;;;;;;;0.90;0.90;;;12.40;99.90;;;;;;4978575;28;20461;-70
2021/12/28 14:42:55;;;;;;;2.03;0.83;;;12.40;99.90;;;;;;4978455;28;20537;-70
2021/12/28 14:45:25;;;;;;;2.23;0.93;;;12.40;99.90;;;;;;4978629;28;20440;-70
2021/12/28 14:47:52;;;;;;;1.73;0.70;;;12.40;99.90;;;;;;4978643;28;20808;-70
2021/12/28 14:50:24;;;;;;;0.90;0.90;;;12.30;99.90;;;;;;4978627;28;20509;-70
2021/12/28 14:52:53;;;;;;;1.17;0.77;;;12.20;99.90;;;;;;4978290;28;20480;-70
2021/12/28 14:55:28;;;;;;;1.33;1.00;;;12.10;99.90;;;;;;4978506;28;20465;-70
2021/12/28 14:57:56;;;;;;;4.93;1.07;;;12.00;99.90;;;;;;4978499;28;20827;-71
2021/12/28 15:00:26;;;;;;;2.83;1.40;;;12.00;99.90;;;;;;4978067;28;20547;-71
2021/12/28 15:02:56;;;;;;;1.90;1.00;;;11.80;99.90;;;;;;4978580;28;20443;-71
2021/12/28 15:05:26;;;;;;;1.93;1.80;;;11.70;99.90;;;;;;4978039;28;20444;-71
2021/12/28 15:07:56;;;;;;;1.53;0.70;;;11.50;99.90;;;;;;4978609;28;20438;-71
2021/12/28 15:10:24;;;;;;;0.90;0.83;;;11.50;99.90;;;;;;4978340;28;20448;-71
2021/12/28 15:12:51;;;;;;;8.07;1.90;;;11.20;99.90;;;;;;4978003;28;20963;-70
2021/12/28 15:15:19;;;;;;;7.83;1.70;;;10.60;99.90;;;;;;4978461;28;20459;-70
2021/12/28 15:17:49;;;;;;;3.90;1.20;;;10.00;99.90;;;;;;4978059;28;20982;-71
2021/12/28 15:20:16;;;;;;;5.03;1.47;;;9.70;99.90;;;;;;4978413;28;20452;-71
2021/12/28 15:22:45;;;;;;;6.10;1.43;;;9.50;99.90;;;;;;4978120;28;20459;-70
2021/12/28 15:25:14;;;;;;;8.37;2.50;;;9.30;99.90;;;;;;4978109;28;20494;-70
2021/12/28 15:27:42;;;;;;;8.60;2.27;;;9.10;99.90;;;;;;4977771;28;20562;-70
2021/12/28 15:30:11;;;;;;;11.03;2.40;;;9.00;99.90;;;;;;4978051;28;20795;-69
2021/12/28 15:32:38;;;;;;;8.77;2.30;;;9.00;99.90;;;;;;4978018;28;20562;-69
2021/12/28 15:35:06;;;;;;;8.93;1.67;;;8.90;99.90;;;;;;4977689;28;20467;-69
2021/12/28 15:37:33;;;;;;;7.10;1.67;;;8.90;99.90;;;;;;4977992;28;20463;-70
2021/12/28 15:40:01;;;;;;;7.87;1.70;;;8.90;99.90;;;;;;4978150;28;20454;-69
2021/12/28 15:42:32;;;;;;;4.33;1.50;;;8.80;99.90;;;;;;4977916;28;20475;-70
2021/12/28 15:44:59;;;;;;;3.33;0.90;;;8.80;99.90;;;;;;4978083;28;20444;-70
2021/12/28 15:47:26;;;;;;;2.40;1.00;;;8.80;99.90;;;;;;4978432;28;20455;-69
2021/12/28 15:49:53;;;;;;;3.80;1.23;;;8.70;99.90;;;;;;4979941;28;21009;-69
2021/12/28 15:52:20;;;;;;;5.73;1.47;;;8.70;99.90;;;;;;4980184;28;20562;-70
2021/12/28 15:54:47;;;;;;;9.33;1.40;;;8.70;99.90;;;;;;4977803;28;20455;-69
2021/12/28 15:57:16;;;;;;;8.00;2.03;;;8.70;99.90;;;;;;4977534;28;20485;-70
2021/12/28 15:59:42;;;;;;;10.47;1.60;;;8.70;99.90;;;;;;4977692;28;20482;-70
2021/12/28 16:02:10;;;;;;;6.27;1.10;;;8.70;99.90;;;;;;4977330;28;20489;-70
2021/12/28 16:04:37;;;;;;;7.00;2.00;;;8.60;99.90;;;;;;4977660;28;20442;-69
2021/12/28 16:07:04;;;;;;;7.97;1.20;;;8.70;99.90;;;;;;4977695;28;20476;-70
2021/12/28 16:09:32;;;;;;;8.90;1.70;;;8.70;99.90;;;;;;4976966;28;20432;-70
2021/12/28 16:11:59;;;;;;;9.77;1.73;;;8.70;99.90;;;;;;4977380;28;20478;-71
2021/12/28 16:14:27;;;;;;;6.67;2.00;;;9.20;99.90;;;;;;4977617;28;20463;-72
2021/12/28 16:16:54;;;;;;;7.90;2.00;;;9.50;99.90;;;;;;4977836;28;20506;-68
2021/12/28 16:19:21;;;;;;;4.17;1.27;;;9.50;99.90;;;;;;4977358;28;20986;-69
2021/12/28 16:21:49;;;;;;;5.33;1.60;;;9.30;99.90;;;;;;4978173;28;20482;-70
2021/12/28 16:24:16;;;;;;;6.93;1.40;;;9.10;99.90;;;;;;4977204;28;20534;-70
2021/12/28 16:26:43;;;;;;;3.33;1.20;;;8.80;99.90;;;;;;4977262;28;20482;-70
2021/12/28 16:29:10;;;;;;;4.00;1.10;;;8.80;99.90;;;;;;4977382;28;20451;-70
2021/12/28 16:31:38;;;;;;;4.47;1.30;;;8.60;99.90;;;;;;4977238;28;20479;-69
2021/12/28 16:34:05;;;;;;;2.10;0.87;;;8.50;99.90;;;;;;4977484;28;20455;-70
2021/12/28 16:36:32;;;;;;;4.70;1.33;;;8.30;99.90;;;;;;4976982;28;20462;-71
2021/12/28 16:38:59;;;;;;;4.70;1.00;;;8.30;99.90;;;;;;4977401;28;20475;-71
2021/12/28 16:41:27;;;;;;;6.33;1.10;;;8.20;99.90;;;;;;4976813;28;20482;-70
2021/12/28 16:43:55;;;;;;;3.50;1.10;;;8.30;99.90;;;;;;4976437;28;20935;-70
2021/12/28 16:46:23;;;;;;;2.83;1.10;;;8.10;99.90;;;;;;4975768;28;20540;-73
2021/12/28 16:48:52;;;;;;;4.57;1.20;;;8.10;99.90;;;;;;4976723;28;20451;-70
2021/12/28 16:51:19;;;;;;;2.30;1.00;;;8.10;99.90;;;;;;4977257;28;20475;-70
2021/12/28 16:53:45;;;;;;;1.80;0.70;;;8.00;99.90;;;;;;4976571;28;20455;-72
2021/12/28 16:56:12;;;;;;;1.47;1.00;;;8.00;99.90;;;;;;4976415;28;20439;-70
2021/12/28 16:58:39;;;;;;;2.87;0.60;;;8.00;99.90;;;;;;4976511;28;20482;-70
2021/12/28 17:01:06;;;;;;;2.33;0.50;;;8.00;99.90;;;;;;4976289;28;20858;-70
2021/12/28 17:03:33;;;;;;;0.73;0.67;;;8.00;99.90;;;;;;4976156;28;20463;-70
2021/12/28 17:06:01;;;;;;;1.60;1.17;;;8.00;99.90;;;;;;4975887;28;20811;-70
2021/12/28 17:08:28;;;;;;;2.67;0.90;;;8.00;99.90;;;;;;4976407;28;20459;-68
2021/12/28 17:10:57;;;;;;;0.67;0.67;;;8.00;99.90;;;;;;4976688;28;20471;-70
2021/12/28 17:13:25;;;;;;;3.33;1.20;;;8.10;99.90;;;;;;4976828;28;20439;-69
2021/12/28 17:15:53;;;;;;;1.20;0.80;;;8.10;99.90;;;;;;4976777;28;20466;-70
2021/12/28 17:18:20;;;;;;;1.90;1.70;;;8.10;99.90;;;;;;4976764;28;20481;-70
2021/12/28 17:20:47;;;;;;;4.20;3.00;;;8.10;99.90;;;;;;4976015;28;21005;-70
2021/12/28 17:23:17;;;;;;;3.47;2.73;;;8.10;99.90;;;;;;4977330;28;20494;-70
2021/12/28 17:25:44;;;;;;;6.10;2.80;;;8.20;99.90;;;;;;4978866;28;20479;-70
2021/12/28 17:28:11;;;;;;;4.77;2.70;;;8.20;99.90;;;;;;4975734;28;20462;-70
2021/12/28 17:30:38;;;;;;;2.60;2.40;;;8.10;99.90;;;;;;4975835;28;20462;-70
2021/12/28 17:33:06;;;;;;;4.27;2.30;;;8.10;99.90;;;;;;4975899;28;20973;-70
2021/12/28 17:35:33;;;;;;;7.30;3.10;;;8.10;99.90;;;;;;4975879;28;20454;-70
2021/12/28 17:38:03;;;;;;;8.90;5.70;;;8.10;99.90;;;;;;4975796;28;20497;-70
2021/12/28 17:40:32;;;;;;;14.13;4.17;;;8.20;99.90;;;;;;4975629;28;20815;-70
2021/12/28 17:42:58;;;;;;;5.87;2.80;;;8.20;99.90;;;;;;4976246;28;20805;-69
2021/12/28 17:45:26;;;;;;;7.60;2.60;;;8.20;99.90;;;;;;4975304;28;20455;-69
2021/12/28 17:47:52;;;;;;;6.97;3.10;;;8.20;99.90;;;;;;4975266;28;20811;-68
2021/12/28 17:50:22;;;;;;;11.20;4.80;;;8.20;99.90;;;;;;4979071;28;20455;-68
2021/12/28 17:52:49;;;;;;;11.50;4.23;;;8.30;99.90;;;;;;4979231;28;20459;-68
2021/12/28 17:55:16;;;;;;;9.60;3.20;;;8.30;99.90;;;;;;4978771;28;20472;-68
2021/12/28 17:57:45;;;;;;;12.00;4.10;;;8.40;99.90;;;;;;4980954;28;20829;-69
2021/12/28 18:00:14;;;;;;;9.27;3.10;;;8.50;99.90;;;;;;4979443;28;20479;-69
2021/12/28 18:02:41;;;;;;;8.23;2.80;;;8.60;99.90;;;;;;4979313;28;20844;-69
2021/12/28 18:05:09;;;;;;;15.67;5.33;;;8.60;99.90;;;;;;4979818;28;20460;-69